Time;durP1;ratioP1;P1;durP2;ratioP2;P2;SDS_P1;SDS_P2;PMS_P1;PMS_P2;Temp;Humidity;BMP_temperature;BMP_pressure;BME280_temperature;BME280_humidity;BME280_pressure;Samples;Min_cycle;Max_cycle;Signal;HPM_P1;HPM_P2
2021/12/09 00:00:08;;;;;;;7.78;3.72;;;4.00;98.70;;;;;;5074671;28;20017;-73
2021/12/09 00:02:34;;;;;;;5.28;3.00;;;3.90;98.70;;;;;;5074282;28;20041;-74
2021/12/09 00:05:00;;;;;;;5.40;2.75;;;3.90;98.70;;;;;;5074538;28;20042;-75
2021/12/09 00:07:25;;;;;;;6.68;3.28;;;3.90;98.70;;;;;;5074121;28;20046;-75
2021/12/09 00:09:51;;;;;;;7.90;2.70;;;3.90;98.70;;;;;;5074410;28;20025;-73
2021/12/09 00:12:18;;;;;;;6.28;2.95;;;3.90;98.70;;;;;;5073850;28;20093;-73
2021/12/09 00:14:43;;;;;;;6.68;2.85;;;3.90;98.70;;;;;;5074271;28;20028;-74
2021/12/09 00:17:10;;;;;;;8.57;3.17;;;3.90;98.80;;;;;;5073849;28;20393;-74
2021/12/09 00:19:38;;;;;;;5.93;3.05;;;3.90;98.80;;;;;;5056212;28;20357;-75
2021/12/09 00:22:06;;;;;;;9.38;3.38;;;3.80;98.70;;;;;;5056147;28;20033;-73
2021/12/09 00:24:32;;;;;;;6.10;2.88;;;3.80;98.70;;;;;;5074364;28;20161;-73
2021/12/09 00:26:57;;;;;;;6.55;3.22;;;3.80;98.80;;;;;;5074191;28;20441;-73
2021/12/09 00:29:23;;;;;;;5.60;2.95;;;3.80;98.80;;;;;;5073837;28;20461;-74
2021/12/09 00:31:49;;;;;;;6.85;3.15;;;3.80;98.70;;;;;;5074036;28;20086;-74
2021/12/09 00:34:19;;;;;;;7.07;2.83;;;3.80;98.80;;;;;;5073497;28;20028;-73
2021/12/09 00:36:56;;;;;;;9.32;3.00;;;3.80;98.70;;;;;;5055897;28;20029;-74
2021/12/09 00:39:23;;;;;;;6.20;3.25;;;3.80;98.80;;;;;;5055434;28;20488;-74
2021/12/09 00:41:49;;;;;;;5.00;2.67;;;3.80;98.80;;;;;;5059656;28;20086;-73
2021/12/09 00:44:15;;;;;;;6.70;3.05;;;3.80;98.80;;;;;;5053305;28;20431;-74
2021/12/09 00:46:40;;;;;;;10.02;3.55;;;3.70;98.80;;;;;;5053583;28;20141;-74
2021/12/09 00:49:07;;;;;;;4.70;2.60;;;3.70;98.70;;;;;;5053662;28;20048;-74
2021/12/09 00:51:33;;;;;;;5.10;2.97;;;3.70;98.80;;;;;;5051766;28;20079;-74
2021/12/09 00:53:58;;;;;;;5.57;2.72;;;3.70;98.80;;;;;;5053555;28;20029;-74
2021/12/09 00:56:24;;;;;;;6.18;3.25;;;3.70;98.80;;;;;;5051427;28;20040;-74
2021/12/09 00:58:51;;;;;;;5.13;3.22;;;3.70;98.80;;;;;;5035490;28;20530;-75
2021/12/09 01:01:17;;;;;;;7.05;3.30;;;3.70;98.80;;;;;;5052561;28;20342;-75
2021/12/09 01:03:43;;;;;;;5.40;3.22;;;3.60;98.80;;;;;;5052961;28;20051;-75
2021/12/09 01:06:10;;;;;;;5.57;3.00;;;3.60;98.80;;;;;;5068453;28;20118;-75
2021/12/09 01:08:37;;;;;;;3.95;2.67;;;3.60;98.80;;;;;;5053209;28;20021;-73
2021/12/09 01:11:04;;;;;;;6.32;3.17;;;3.60;98.80;;;;;;5052060;28;20017;-73
2021/12/09 01:13:30;;;;;;;6.38;4.00;;;3.60;98.80;;;;;;5051333;28;20032;-74
2021/12/09 01:15:56;;;;;;;5.55;4.00;;;3.60;98.80;;;;;;5053139;28;20104;-73
2021/12/09 01:18:22;;;;;;;6.53;3.38;;;3.60;98.80;;;;;;5052647;28;20374;-73
2021/12/09 01:20:47;;;;;;;4.95;3.03;;;3.60;98.80;;;;;;5052939;28;20057;-74
2021/12/09 01:23:14;;;;;;;6.25;3.30;;;3.60;98.80;;;;;;5052464;28;20068;-74
2021/12/09 01:25:40;;;;;;;4.88;3.05;;;3.60;98.90;;;;;;5052641;28;20436;-74
2021/12/09 01:28:09;;;;;;;5.75;3.22;;;3.60;98.90;;;;;;5035117;28;20021;-73
2021/12/09 01:30:36;;;;;;;7.03;3.00;;;3.50;98.90;;;;;;5051101;28;20025;-74
2021/12/09 01:33:06;;;;;;;5.63;3.40;;;3.50;98.90;;;;;;5052797;28;20036;-74
2021/12/09 01:35:34;;;;;;;4.90;2.90;;;3.60;98.90;;;;;;5034706;28;20355;-74
2021/12/09 01:38:09;;;;;;;8.68;3.17;;;3.50;98.90;;;;;;5052684;28;20077;-74
2021/12/09 01:40:35;;;;;;;5.88;2.80;;;3.50;98.90;;;;;;5052270;28;20110;-75
2021/12/09 01:43:01;;;;;;;7.28;3.35;;;3.50;98.90;;;;;;5052678;28;20116;-74
2021/12/09 01:45:27;;;;;;;6.78;3.35;;;3.50;98.90;;;;;;5051975;28;20056;-74
2021/12/09 01:47:53;;;;;;;8.50;3.22;;;3.50;98.90;;;;;;5052685;28;20020;-74
2021/12/09 01:50:19;;;;;;;6.03;3.00;;;3.40;98.90;;;;;;5052360;28;20021;-73
2021/12/09 01:52:45;;;;;;;7.32;3.22;;;3.40;98.90;;;;;;5051127;28;20033;-74
2021/12/09 01:55:13;;;;;;;6.00;2.83;;;3.30;98.90;;;;;;5052102;28;20024;-73
2021/12/09 01:57:39;;;;;;;4.50;3.00;;;3.30;98.90;;;;;;5034453;28;20044;-73
2021/12/09 02:00:08;;;;;;;8.80;3.63;;;3.30;98.90;;;;;;5052339;28;20067;-73
2021/12/09 02:02:34;;;;;;;6.28;3.20;;;3.30;98.90;;;;;;5050506;28;20033;-73
2021/12/09 02:05:00;;;;;;;4.32;2.45;;;3.30;98.90;;;;;;5050276;28;20573;-73
2021/12/09 02:07:25;;;;;;;8.68;3.17;;;3.30;98.90;;;;;;5051881;28;20377;-73
2021/12/09 02:09:51;;;;;;;6.28;3.28;;;3.40;98.90;;;;;;5052518;28;20032;-73
2021/12/09 02:12:17;;;;;;;6.13;3.05;;;3.40;98.90;;;;;;5051766;28;20044;-74
2021/12/09 02:14:44;;;;;;;5.18;2.63;;;3.40;98.70;;;;;;5052318;28;20024;-74
2021/12/09 02:17:11;;;;;;;7.75;3.15;;;3.40;98.70;;;;;;5067614;28;20017;-74
2021/12/09 02:19:43;;;;;;;6.38;3.20;;;3.40;98.70;;;;;;5051911;28;20112;-74
2021/12/09 02:22:14;;;;;;;7.90;3.53;;;3.30;98.70;;;;;;5052114;28;20021;-74
2021/12/09 02:24:41;;;;;;;7.47;3.47;;;3.30;98.70;;;;;;5050963;28;20021;-74
2021/12/09 02:27:07;;;;;;;6.20;3.17;;;3.30;98.70;;;;;;5050897;28;20028;-74
2021/12/09 02:29:33;;;;;;;6.53;3.10;;;3.30;98.70;;;;;;5051586;28;20100;-74
2021/12/09 02:32:01;;;;;;;5.07;2.67;;;3.30;98.70;;;;;;5051841;28;20405;-74
2021/12/09 02:34:27;;;;;;;8.98;3.28;;;3.30;98.70;;;;;;5050286;28;20025;-74
2021/12/09 02:36:53;;;;;;;6.85;2.80;;;3.30;98.70;;;;;;5050943;28;20483;-74
2021/12/09 02:39:19;;;;;;;7.07;3.72;;;3.30;98.70;;;;;;5051520;28;20025;-74
2021/12/09 02:41:46;;;;;;;5.00;2.95;;;3.20;98.80;;;;;;5051624;28;20045;-74
2021/12/09 02:44:16;;;;;;;4.93;3.03;;;3.20;98.80;;;;;;5051992;28;20051;-74
2021/12/09 02:46:42;;;;;;;5.50;3.10;;;3.20;98.80;;;;;;5051629;28;20440;-74
2021/12/09 02:49:11;;;;;;;5.95;3.08;;;3.10;98.80;;;;;;5050645;28;20044;-74
2021/12/09 02:51:38;;;;;;;7.57;3.45;;;3.10;98.90;;;;;;5051710;28;20029;-74
2021/12/09 02:54:05;;;;;;;7.20;3.65;;;3.10;98.90;;;;;;5051784;28;20028;-74
2021/12/09 02:56:31;;;;;;;7.43;3.55;;;3.00;98.90;;;;;;5051448;28;20029;-74
2021/12/09 02:58:57;;;;;;;5.05;2.83;;;3.00;98.90;;;;;;5067218;28;20380;-74
2021/12/09 03:01:29;;;;;;;6.43;3.50;;;3.00;99.00;;;;;;5051265;28;20071;-74
2021/12/09 03:04:00;;;;;;;5.78;3.50;;;3.00;99.00;;;;;;5051849;28;20079;-74
2021/12/09 03:06:38;;;;;;;7.35;3.45;;;2.90;98.90;;;;;;5050072;28;20362;-74
2021/12/09 03:09:13;;;;;;;6.75;3.78;;;2.90;99.00;;;;;;5051854;28;20028;-74
2021/12/09 03:11:38;;;;;;;4.82;3.35;;;2.90;98.90;;;;;;5051292;28;20531;-74
2021/12/09 03:14:04;;;;;;;6.93;3.83;;;2.90;98.90;;;;;;5067067;28;20017;-74
2021/12/09 03:16:31;;;;;;;6.38;3.40;;;2.90;98.90;;;;;;5054357;28;20479;-74
2021/12/09 03:18:59;;;;;;;6.90;3.35;;;2.80;98.90;;;;;;5055360;28;20465;-74
2021/12/09 03:21:33;;;;;;;5.30;2.58;;;2.80;98.90;;;;;;5054760;28;20075;-74
2021/12/09 03:23:59;;;;;;;7.80;3.22;;;2.80;98.90;;;;;;5055184;28;20025;-74
2021/12/09 03:26:29;;;;;;;6.57;3.05;;;2.80;98.90;;;;;;5054853;28;20078;-73
2021/12/09 03:28:57;;;;;;;6.03;2.90;;;2.70;98.90;;;;;;5055206;28;20037;-73
2021/12/09 03:31:23;;;;;;;7.25;2.92;;;2.70;98.90;;;;;;5053344;28;20474;-74
2021/12/09 03:33:49;;;;;;;5.80;2.90;;;2.70;99.00;;;;;;5055114;28;20036;-73
2021/12/09 03:36:15;;;;;;;6.00;3.40;;;2.70;99.00;;;;;;5054871;28;20017;-73
2021/12/09 03:38:42;;;;;;;5.85;3.10;;;2.70;99.00;;;;;;5053434;28;20055;-73
2021/12/09 03:41:07;;;;;;;6.25;3.30;;;2.70;99.00;;;;;;5054648;28;20033;-73
2021/12/09 03:43:33;;;;;;;6.60;2.95;;;2.70;99.00;;;;;;5069827;28;20072;-74
2021/12/09 03:45:59;;;;;;;5.88;2.80;;;2.70;99.00;;;;;;5055021;28;20025;-73
2021/12/09 03:48:28;;;;;;;4.70;3.05;;;2.60;99.00;;;;;;5054362;28;20032;-74
2021/12/09 03:50:54;;;;;;;7.65;2.95;;;2.60;99.00;;;;;;5054787;28;20025;-73
2021/12/09 03:53:20;;;;;;;5.35;2.85;;;2.60;99.00;;;;;;5054550;28;20056;-73
2021/12/09 03:55:46;;;;;;;6.07;4.22;;;2.60;99.00;;;;;;5054338;28;20064;-74
2021/12/09 03:58:12;;;;;;;7.03;3.13;;;2.60;99.00;;;;;;5054903;28;20063;-73
2021/12/09 04:00:38;;;;;;;7.90;3.22;;;2.60;99.00;;;;;;5054172;28;20023;-73
2021/12/09 04:03:04;;;;;;;4.75;3.15;;;2.60;99.00;;;;;;5054251;28;20057;-73
2021/12/09 04:05:30;;;;;;;9.98;2.90;;;2.60;99.00;;;;;;5036206;28;20029;-73
2021/12/09 04:07:56;;;;;;;10.95;3.60;;;2.60;99.00;;;;;;5054371;28;20017;-73
2021/12/09 04:10:22;;;;;;;6.25;3.53;;;2.60;99.00;;;;;;5054087;28;20025;-73
2021/12/09 04:12:48;;;;;;;8.55;3.00;;;2.50;99.00;;;;;;5054587;28;20040;-74
2021/12/09 04:15:14;;;;;;;9.18;3.63;;;2.50;99.00;;;;;;5063413;28;20116;-73
2021/12/09 04:17:39;;;;;;;6.30;3.08;;;2.50;99.00;;;;;;5055497;28;20028;-72
2021/12/09 04:20:07;;;;;;;8.20;3.28;;;2.50;98.90;;;;;;5074212;28;20099;-72
2021/12/09 04:22:33;;;;;;;6.90;3.28;;;2.50;99.00;;;;;;5055549;28;20032;-73
2021/12/09 04:24:59;;;;;;;7.70;3.33;;;2.50;99.00;;;;;;5074194;28;20036;-72
2021/12/09 04:27:25;;;;;;;6.25;3.13;;;2.50;99.00;;;;;;5055005;28;20070;-73
2021/12/09 04:29:53;;;;;;;5.05;2.80;;;2.50;99.00;;;;;;5056209;28;20052;-73
2021/12/09 04:32:18;;;;;;;5.97;3.25;;;2.50;99.00;;;;;;5074008;28;20486;-73
2021/12/09 04:34:45;;;;;;;6.45;2.92;;;2.50;99.00;;;;;;5055587;28;20115;-73
2021/12/09 04:37:11;;;;;;;7.93;3.25;;;2.50;99.00;;;;;;5055937;28;20055;-73
2021/12/09 04:39:37;;;;;;;5.38;3.00;;;2.40;99.00;;;;;;5073419;28;20052;-74
2021/12/09 04:42:04;;;;;;;6.47;3.15;;;2.40;99.00;;;;;;5073920;28;20124;-73
2021/12/09 04:44:30;;;;;;;6.72;3.05;;;2.50;99.00;;;;;;5073341;28;20056;-73
2021/12/09 04:46:56;;;;;;;7.15;3.42;;;2.40;99.00;;;;;;5055857;28;20074;-74
2021/12/09 04:49:22;;;;;;;5.18;3.00;;;2.40;99.00;;;;;;5073539;28;20021;-73
2021/12/09 04:51:48;;;;;;;4.90;3.03;;;2.50;99.00;;;;;;5055193;28;20484;-74
2021/12/09 04:54:15;;;;;;;5.82;3.05;;;2.40;98.90;;;;;;5073863;28;20082;-73
2021/12/09 04:56:41;;;;;;;5.00;2.88;;;2.40;98.90;;;;;;5055169;28;20024;-74
2021/12/09 04:59:08;;;;;;;6.47;3.22;;;2.40;99.00;;;;;;5055386;28;20435;-73
2021/12/09 05:01:34;;;;;;;6.97;3.00;;;2.40;98.90;;;;;;5055009;28;20123;-74
2021/12/09 05:04:01;;;;;;;6.25;2.88;;;2.40;98.90;;;;;;5054873;28;20123;-72
2021/12/09 05:06:29;;;;;;;6.72;3.60;;;2.40;98.90;;;;;;5073227;28;20028;-76
2021/12/09 05:08:55;;;;;;;6.45;3.28;;;2.30;98.90;;;;;;5064287;28;20027;-74
2021/12/09 05:13:54;;;;;;;5.38;3.00;;;2.30;98.90;;;;;;5093539;28;20028;-74
2021/12/09 05:16:20;;;;;;;6.57;3.40;;;2.30;98.90;;;;;;5093275;28;20024;-74
2021/12/09 05:18:46;;;;;;;7.22;3.70;;;2.40;99.00;;;;;;5092845;28;20035;-74
2021/12/09 05:21:12;;;;;;;7.22;3.53;;;2.30;98.90;;;;;;5093159;28;20064;-75
2021/12/09 05:23:39;;;;;;;7.35;3.28;;;2.30;99.00;;;;;;5074549;28;20056;-74
2021/12/09 05:26:05;;;;;;;7.03;3.13;;;2.30;99.00;;;;;;5093642;28;20032;-75
2021/12/09 05:28:35;;;;;;;6.97;3.00;;;2.30;99.00;;;;;;5074507;28;20391;-75
2021/12/09 05:33:50;;;;;;;5.00;2.92;;;2.30;99.00;;;;;;5092433;28;20039;-74
2021/12/09 05:36:17;;;;;;;3.95;2.83;;;2.30;99.00;;;;;;5093149;28;20051;-74
2021/12/09 05:38:43;;;;;;;6.22;2.85;;;2.30;99.00;;;;;;5073387;28;20489;-74
2021/12/09 05:41:09;;;;;;;5.53;3.25;;;2.30;99.00;;;;;;5074601;28;20051;-75
2021/12/09 05:43:36;;;;;;;5.18;3.50;;;2.30;99.00;;;;;;5074234;28;20023;-74
2021/12/09 05:46:02;;;;;;;13.20;6.28;;;2.30;99.00;;;;;;5074682;28;20016;-74
2021/12/09 05:48:27;;;;;;;10.98;5.50;;;2.30;99.00;;;;;;5074486;28;20030;-74
2021/12/09 05:50:53;;;;;;;8.85;5.00;;;2.30;99.00;;;;;;5092377;28;20024;-74
2021/12/09 05:53:19;;;;;;;10.57;5.05;;;2.30;99.00;;;;;;5074647;28;20456;-74
2021/12/09 05:55:45;;;;;;;7.63;4.00;;;2.30;99.00;;;;;;5092039;28;20020;-74
2021/12/09 05:58:16;;;;;;;10.25;4.15;;;2.30;99.10;;;;;;5074148;28;20071;-73
2021/12/09 06:00:43;;;;;;;7.13;4.28;;;2.30;99.10;;;;;;5086437;28;20491;-74
2021/12/09 06:03:08;;;;;;;5.85;3.20;;;2.30;99.10;;;;;;5071948;28;20469;-74
2021/12/09 06:05:35;;;;;;;6.30;3.50;;;2.20;99.10;;;;;;5053959;28;20032;-73
2021/12/09 06:08:02;;;;;;;6.13;2.95;;;2.20;99.10;;;;;;5072331;28;20021;-73
2021/12/09 06:10:28;;;;;;;6.00;3.30;;;2.20;99.10;;;;;;5072534;28;20036;-73
2021/12/09 06:12:53;;;;;;;6.22;3.50;;;2.30;99.10;;;;;;5071827;28;20032;-73
2021/12/09 06:15:20;;;;;;;7.85;3.42;;;2.30;99.10;;;;;;5069577;28;20078;-79
2021/12/09 06:17:45;;;;;;;8.27;3.33;;;2.30;99.10;;;;;;5051581;28;20024;-79
2021/12/09 06:20:11;;;;;;;5.97;3.28;;;2.30;99.10;;;;;;5068899;28;20052;-78
2021/12/09 06:22:37;;;;;;;5.25;3.13;;;2.30;99.10;;;;;;5069675;28;20033;-79
2021/12/09 06:25:04;;;;;;;5.43;3.15;;;2.30;99.10;;;;;;5052216;28;20033;-79
2021/12/09 06:27:30;;;;;;;5.80;3.05;;;2.30;99.10;;;;;;5069421;28;20021;-79
2021/12/09 06:29:55;;;;;;;5.40;3.17;;;2.30;99.20;;;;;;5069690;28;20468;-78
2021/12/09 06:32:21;;;;;;;6.82;3.08;;;2.30;99.10;;;;;;5070106;28;20085;-80
2021/12/09 06:34:47;;;;;;;9.57;3.95;;;2.30;99.10;;;;;;5051790;28;20357;-81
2021/12/09 06:37:13;;;;;;;4.53;2.95;;;2.30;99.10;;;;;;5069398;28;20020;-80
2021/12/09 06:39:39;;;;;;;9.05;3.15;;;2.30;99.20;;;;;;5069451;28;20078;-80
2021/12/09 06:42:06;;;;;;;5.47;3.22;;;2.30;99.20;;;;;;5072257;28;20025;-79
2021/12/09 06:44:31;;;;;;;5.95;2.42;;;2.30;99.20;;;;;;5071816;28;20094;-79
2021/12/09 06:46:58;;;;;;;5.93;2.95;;;2.30;99.20;;;;;;5071681;28;20445;-75
2021/12/09 06:49:24;;;;;;;6.07;2.90;;;2.30;99.20;;;;;;5071831;28;20020;-75
2021/12/09 06:51:51;;;;;;;5.05;2.95;;;2.40;99.20;;;;;;5075295;28;20036;-75
2021/12/09 06:54:17;;;;;;;6.53;2.78;;;2.40;99.20;;;;;;5075835;28;20034;-75
2021/12/09 06:56:42;;;;;;;5.45;3.15;;;2.40;99.10;;;;;;5075091;28;20086;-74
2021/12/09 06:59:08;;;;;;;6.80;2.90;;;2.40;99.20;;;;;;5057785;28;20017;-74
2021/12/09 07:01:35;;;;;;;4.30;2.55;;;2.40;99.10;;;;;;5057669;28;20507;-74
2021/12/09 07:04:01;;;;;;;6.80;2.50;;;2.40;99.10;;;;;;5056911;28;20040;-73
2021/12/09 07:06:27;;;;;;;4.78;2.50;;;2.40;99.10;;;;;;5074677;28;20020;-73
2021/12/09 07:08:59;;;;;;;3.80;2.20;;;2.40;99.10;;;;;;5074880;28;20017;-73
2021/12/09 07:11:24;;;;;;;4.28;2.20;;;2.40;99.10;;;;;;5056858;28;20024;-74
2021/12/09 07:13:50;;;;;;;5.43;2.25;;;2.50;99.10;;;;;;5056906;28;20020;-74
2021/12/09 07:16:16;;;;;;;3.30;1.88;;;2.50;99.10;;;;;;5057443;28;20092;-74
2021/12/09 07:18:42;;;;;;;5.13;2.08;;;2.50;99.10;;;;;;5074870;28;20423;-75
2021/12/09 07:21:09;;;;;;;5.80;2.13;;;2.50;99.10;;;;;;5075030;28;20105;-75
2021/12/09 07:23:34;;;;;;;5.93;2.92;;;2.50;99.10;;;;;;5075236;28;20159;-74
2021/12/09 07:26:01;;;;;;;5.22;2.15;;;2.50;99.10;;;;;;5056748;28;20108;-75
2021/12/09 07:28:27;;;;;;;3.70;2.20;;;2.50;99.10;;;;;;5075097;28;20507;-75
2021/12/09 07:30:53;;;;;;;5.93;2.28;;;2.50;99.10;;;;;;5056755;28;20139;-75
2021/12/09 07:33:19;;;;;;;4.80;2.00;;;2.60;99.20;;;;;;5075070;28;20445;-73
2021/12/09 07:35:45;;;;;;;6.22;2.28;;;2.60;99.20;;;;;;5074435;28;20043;-74
2021/12/09 07:38:11;;;;;;;4.15;2.30;;;2.60;99.20;;;;;;5057268;28;20021;-74
2021/12/09 07:40:37;;;;;;;4.25;2.25;;;2.60;99.20;;;;;;5074572;28;20024;-73
2021/12/09 07:43:04;;;;;;;7.63;2.50;;;2.60;99.20;;;;;;5074518;28;20101;-74
2021/12/09 07:45:30;;;;;;;5.65;2.58;;;2.60;99.20;;;;;;5074565;28;20021;-73
2021/12/09 07:47:56;;;;;;;5.72;2.70;;;2.60;99.20;;;;;;5074103;28;20107;-73
2021/12/09 07:50:28;;;;;;;4.55;2.42;;;2.60;99.10;;;;;;5074683;28;20025;-74
2021/12/09 07:52:55;;;;;;;5.53;2.45;;;2.60;99.10;;;;;;5074291;28;20025;-74
2021/12/09 07:55:23;;;;;;;4.13;2.22;;;2.60;99.20;;;;;;5074659;28;20020;-74
2021/12/09 07:57:50;;;;;;;4.00;2.67;;;2.60;99.20;;;;;;5056193;28;20066;-73
2021/12/09 08:00:22;;;;;;;8.30;3.35;;;2.60;99.20;;;;;;5056633;28;20024;-73
2021/12/09 08:02:49;;;;;;;6.93;3.38;;;2.60;99.10;;;;;;5072836;28;20115;-73
2021/12/09 08:05:16;;;;;;;6.28;3.58;;;2.70;99.10;;;;;;5074495;28;20508;-74
2021/12/09 08:07:42;;;;;;;7.53;3.40;;;2.70;99.10;;;;;;5073877;28;20138;-75
2021/12/09 08:10:10;;;;;;;6.60;3.63;;;2.70;99.00;;;;;;5074489;28;20432;-74
2021/12/09 08:12:37;;;;;;;8.23;3.10;;;2.70;99.00;;;;;;5074688;28;20043;-73
2021/12/09 08:15:05;;;;;;;10.80;3.92;;;2.70;99.00;;;;;;5055776;28;20020;-73
2021/12/09 08:20:07;;;;;;;5.63;3.10;;;2.70;99.00;;;;;;5073910;28;20035;-74
2021/12/09 08:22:34;;;;;;;7.10;3.00;;;2.70;99.00;;;;;;5056224;28;20384;-73
2021/12/09 08:25:00;;;;;;;4.75;2.83;;;2.70;99.00;;;;;;5055599;28;20074;-74
2021/12/09 08:27:26;;;;;;;5.35;3.13;;;2.70;99.30;;;;;;5055964;28;20457;-73
2021/12/09 08:29:52;;;;;;;8.55;3.25;;;2.70;99.00;;;;;;5072946;28;20043;-74
2021/12/09 08:32:18;;;;;;;6.88;3.38;;;2.80;99.00;;;;;;5073027;28;20472;-74
2021/12/09 08:34:44;;;;;;;8.38;3.17;;;2.80;99.10;;;;;;5072774;28;20028;-74
2021/12/09 08:37:10;;;;;;;5.47;2.58;;;2.80;99.00;;;;;;5055351;28;20028;-74
2021/12/09 08:39:36;;;;;;;7.45;2.70;;;2.90;99.00;;;;;;5073838;28;20035;-74
2021/12/09 08:42:02;;;;;;;6.75;3.13;;;2.90;99.00;;;;;;5072841;28;20481;-74
2021/12/09 08:44:28;;;;;;;8.52;3.15;;;2.90;99.00;;;;;;5055153;28;20388;-74
2021/12/09 08:46:54;;;;;;;7.28;2.45;;;3.00;99.00;;;;;;5073084;28;20045;-75
2021/12/09 08:49:19;;;;;;;5.07;2.63;;;3.10;99.00;;;;;;5073226;28;20082;-75
2021/12/09 08:51:45;;;;;;;5.70;2.78;;;3.20;99.00;;;;;;5055030;28;20078;-74
2021/12/09 08:54:11;;;;;;;6.57;2.45;;;3.40;98.80;;;;;;5073484;28;20021;-74
2021/12/09 08:56:37;;;;;;;8.10;2.20;;;3.50;98.70;;;;;;5073749;28;20028;-74
2021/12/09 08:59:05;;;;;;;7.25;3.00;;;3.70;98.50;;;;;;5072743;28;20103;-74
2021/12/09 09:01:32;;;;;;;8.52;3.28;;;3.80;98.40;;;;;;5055366;28;20039;-75
2021/12/09 09:03:58;;;;;;;8.07;2.53;;;3.90;98.40;;;;;;5072550;28;20114;-74
2021/12/09 09:06:24;;;;;;;5.78;2.38;;;4.00;98.30;;;;;;5073269;28;20029;-74
2021/12/09 09:08:56;;;;;;;6.80;3.28;;;4.00;98.20;;;;;;5072864;28;20032;-74
2021/12/09 09:11:21;;;;;;;7.57;3.15;;;4.10;98.20;;;;;;5054989;28;20024;-74
2021/12/09 09:13:47;;;;;;;9.40;2.90;;;4.10;98.10;;;;;;5054618;28;20066;-74
2021/12/09 09:16:13;;;;;;;9.15;3.30;;;4.10;98.10;;;;;;5072934;28;20436;-75
2021/12/09 09:18:39;;;;;;;4.20;2.40;;;4.20;98.20;;;;;;5072924;28;20377;-74
2021/12/09 09:21:05;;;;;;;6.25;3.20;;;4.30;98.20;;;;;;5072462;28;20020;-74
2021/12/09 09:23:31;;;;;;;6.70;3.15;;;4.30;98.00;;;;;;5073048;28;20020;-74
2021/12/09 09:25:57;;;;;;;6.85;3.38;;;4.30;98.00;;;;;;5072182;28;20016;-74
2021/12/09 09:28:23;;;;;;;9.82;3.13;;;4.40;98.00;;;;;;5072586;28;20047;-74
2021/12/09 09:30:56;;;;;;;7.18;3.03;;;4.40;97.90;;;;;;5072363;28;20016;-75
2021/12/09 09:33:25;;;;;;;7.72;3.50;;;4.40;97.90;;;;;;5054867;28;20028;-73
2021/12/09 09:35:51;;;;;;;8.18;2.92;;;4.50;97.80;;;;;;5072255;28;20020;-74
2021/12/09 09:38:19;;;;;;;8.32;3.60;;;4.50;97.80;;;;;;5072779;28;20460;-73
2021/12/09 09:40:51;;;;;;;6.30;2.63;;;4.60;97.70;;;;;;5072677;28;20016;-74
2021/12/09 09:43:42;;;;;;;6.25;3.35;;;4.70;97.70;;;;;;5072336;28;20107;-74
2021/12/09 09:46:10;;;;;;;9.38;3.85;;;4.70;97.70;;;;;;5072306;28;20107;-74
2021/12/09 09:48:36;;;;;;;9.52;3.45;;;4.70;97.60;;;;;;5072610;28;20021;-73
2021/12/09 09:51:05;;;;;;;7.68;3.30;;;4.80;97.60;;;;;;5072200;28;20024;-74
2021/12/09 09:53:32;;;;;;;8.60;3.80;;;4.80;97.70;;;;;;5072276;28;20195;-73
2021/12/09 09:55:57;;;;;;;8.68;3.88;;;4.80;97.60;;;;;;5071941;28;20031;-73
2021/12/09 09:58:25;;;;;;;10.50;3.60;;;4.80;97.50;;;;;;5072337;28;20016;-73
2021/12/09 10:00:51;;;;;;;7.75;3.45;;;4.90;97.60;;;;;;5071862;28;20066;-74
2021/12/09 10:03:17;;;;;;;10.98;3.60;;;4.90;97.50;;;;;;5071954;28;20051;-74
2021/12/09 10:05:47;;;;;;;11.48;4.00;;;4.90;97.60;;;;;;5072174;28;20438;-74
2021/12/09 10:08:14;;;;;;;9.32;4.00;;;4.90;97.60;;;;;;5053756;28;20415;-74
2021/12/09 10:10:46;;;;;;;6.05;3.40;;;4.90;97.60;;;;;;5072098;28;20023;-74
2021/12/09 10:13:14;;;;;;;4.78;2.75;;;4.90;97.60;;;;;;5053747;28;20472;-73
2021/12/09 10:15:46;;;;;;;12.93;3.47;;;4.90;97.50;;;;;;5054150;28;20074;-74
2021/12/09 10:18:30;;;;;;;5.95;3.13;;;4.90;97.60;;;;;;5053753;28;20115;-74
2021/12/09 10:20:55;;;;;;;9.85;3.47;;;4.90;97.50;;;;;;5072068;28;20016;-75
2021/12/09 10:23:28;;;;;;;6.32;3.13;;;4.90;97.50;;;;;;5071976;28;20046;-74
2021/12/09 10:26:12;;;;;;;7.40;3.25;;;4.90;97.50;;;;;;5052822;28;20036;-75
2021/12/09 10:28:41;;;;;;;9.38;3.38;;;5.00;97.50;;;;;;5072397;28;20472;-75
2021/12/09 10:31:23;;;;;;;7.03;3.72;;;5.00;97.40;;;;;;5071313;28;20042;-74
2021/12/09 10:34:38;;;;;;;9.38;3.80;;;5.10;97.40;;;;;;5072222;28;20048;-74
2021/12/09 10:37:26;;;;;;;8.68;3.53;;;5.10;97.30;;;;;;5060089;28;20039;-75
2021/12/09 10:39:56;;;;;;;8.48;3.60;;;5.20;97.30;;;;;;5053642;28;20489;-75
2021/12/09 10:42:31;;;;;;;6.32;4.07;;;5.20;97.30;;;;;;5072452;28;20044;-75
2021/12/09 10:45:00;;;;;;;8.30;3.42;;;5.20;97.30;;;;;;5072065;28;20081;-76
2021/12/09 10:52:50;;;;;;;7.60;4.13;;;5.20;97.30;;;;;;5071926;28;20190;-75
2021/12/09 10:55:26;;;;;;;9.18;4.30;;;5.20;97.30;;;;;;5071512;28;20492;-74
2021/12/09 10:58:07;;;;;;;11.10;3.67;;;5.20;97.30;;;;;;5071776;28;20043;-73
2021/12/09 11:00:40;;;;;;;6.78;3.60;;;5.20;97.30;;;;;;5053852;28;20028;-73
2021/12/09 11:03:09;;;;;;;9.43;3.95;;;5.20;97.30;;;;;;5071295;28;20028;-73
2021/12/09 11:06:00;;;;;;;8.30;4.10;;;5.20;97.40;;;;;;5071855;28;20056;-75
2021/12/09 11:08:27;;;;;;;9.65;3.97;;;5.20;97.40;;;;;;5053916;28;20032;-74
2021/12/09 11:11:00;;;;;;;9.77;3.95;;;5.30;97.50;;;;;;5071386;28;20020;-74
2021/12/09 11:13:35;;;;;;;9.30;5.15;;;5.20;97.40;;;;;;5071530;28;20059;-73
2021/12/09 11:16:04;;;;;;;10.27;5.07;;;5.20;97.40;;;;;;5070646;28;20028;-74
2021/12/09 11:18:37;;;;;;;10.60;4.60;;;5.20;97.50;;;;;;5071630;28;20079;-74
2021/12/09 11:21:18;;;;;;;11.80;4.63;;;5.30;97.50;;;;;;5071242;28;20078;-74
2021/12/09 11:23:54;;;;;;;9.38;4.70;;;5.30;97.50;;;;;;5071506;28;20522;-74
2021/12/09 11:29:22;;;;;;;9.90;5.30;;;5.30;97.40;;;;;;5071093;28;20150;-74
2021/12/09 11:32:10;;;;;;;11.75;5.88;;;5.30;97.40;;;;;;5071406;28;20025;-75
2021/12/09 11:34:48;;;;;;;10.00;5.72;;;5.30;97.40;;;;;;5053555;28;20119;-75
2021/12/09 11:37:58;;;;;;;11.32;4.65;;;5.30;97.50;;;;;;5054085;28;20415;-75
2021/12/09 11:40:33;;;;;;;10.63;5.50;;;5.30;97.50;;;;;;5070158;28;20025;-75
2021/12/09 11:43:01;;;;;;;10.35;4.85;;;5.40;97.60;;;;;;5074482;28;20035;-74
2021/12/09 11:45:33;;;;;;;13.35;5.68;;;5.40;97.50;;;;;;5056900;28;20369;-74
2021/12/09 11:48:01;;;;;;;15.05;5.32;;;5.40;97.50;;;;;;5074240;28;20464;-74
2021/12/09 11:50:31;;;;;;;12.88;5.88;;;5.50;97.40;;;;;;5074338;28;20350;-74
2021/12/09 11:53:00;;;;;;;14.40;6.35;;;5.50;97.40;;;;;;5074120;28;20496;-74
2021/12/09 11:55:33;;;;;;;11.48;5.75;;;5.50;97.40;;;;;;5074646;28;20139;-74
2021/12/09 11:58:09;;;;;;;10.68;5.68;;;5.50;97.40;;;;;;5056340;28;20035;-75
2021/12/09 12:18:52;;;;;;;11.15;5.57;;;5.70;97.40;;;;;;5061419;28;20501;-73
2021/12/09 12:35:17;;;;;;;13.18;6.75;;;5.80;97.20;;;;;;5073850;28;20477;-73
2021/12/09 12:40:37;;;;;;;10.32;6.07;;;5.70;97.30;;;;;;5073844;28;20043;-73
2021/12/09 12:43:16;;;;;;;11.45;5.47;;;5.80;97.30;;;;;;5055206;28;20084;-75
2021/12/09 12:51:14;;;;;;;8.32;5.03;;;5.80;97.30;;;;;;5072939;28;20029;-73
2021/12/09 12:53:49;;;;;;;6.95;4.30;;;5.80;97.30;;;;;;5055701;28;20027;-73
2021/12/09 12:56:24;;;;;;;11.13;4.80;;;5.90;97.40;;;;;;5055067;28;20039;-73
2021/12/09 12:59:18;;;;;;;10.25;5.90;;;5.90;97.20;;;;;;5073518;28;20507;-74
2021/12/09 13:02:56;;;;;;;12.40;5.78;;;5.80;97.20;;;;;;5073363;28;20028;-74
2021/12/09 13:05:07;;;;;;;8.57;4.70;;;5.80;97.20;;;;;;5072326;28;20378;-73
2021/12/09 13:08:30;;;;;;;;;;;5.80;97.30;;;;;;5055511;28;20020;-74
2021/12/09 13:13:25;;;;;;;10.13;5.90;;;5.90;97.20;;;;;;5072739;28;20033;-74
2021/12/09 13:16:02;;;;;;;11.70;5.88;;;5.90;97.20;;;;;;5073159;28;20468;-75
2021/12/09 13:21:36;;;;;;;10.20;4.70;;;6.00;97.20;;;;;;5072790;28;20070;-73
2021/12/09 13:24:47;;;;;;;9.30;5.20;;;6.00;97.20;;;;;;5054713;28;20499;-75
2021/12/09 13:27:28;;;;;;;12.60;5.33;;;6.00;97.20;;;;;;5072545;28;20021;-73
2021/12/09 13:46:58;;;;;;;8.90;5.68;;;6.00;97.30;;;;;;5072600;28;20040;-74
2021/12/09 13:55:08;;;;;;;8.52;4.47;;;5.90;97.30;;;;;;5071950;28;20090;-74
2021/12/09 13:57:41;;;;;;;9.88;5.63;;;6.00;97.30;;;;;;5054687;28;20023;-73
2021/12/09 14:00:12;;;;;;;9.02;4.93;;;6.00;97.30;;;;;;5071261;28;20086;-75
2021/12/09 14:02:38;;;;;;;7.15;5.00;;;6.00;97.30;;;;;;5054503;28;20061;-73
2021/12/09 14:05:05;;;;;;;11.23;5.47;;;6.00;97.30;;;;;;5050569;28;20052;-74
2021/12/09 14:07:37;;;;;;;12.95;6.10;;;6.00;97.30;;;;;;5052656;28;20017;-74
2021/12/09 14:10:10;;;;;;;10.93;4.68;;;6.00;97.20;;;;;;5051020;28;20384;-74
2021/12/09 14:12:49;;;;;;;11.93;6.28;;;6.00;97.60;;;;;;5051957;28;20404;-73
2021/12/09 14:15:23;;;;;;;11.20;5.88;;;6.00;97.20;;;;;;5052127;28;20396;-74
2021/12/09 14:18:00;;;;;;;9.90;5.15;;;6.00;97.30;;;;;;5050975;28;20025;-74
2021/12/09 14:20:26;;;;;;;12.52;5.75;;;6.00;97.30;;;;;;5051681;28;20488;-74
2021/12/09 14:22:52;;;;;;;9.45;5.50;;;6.00;97.30;;;;;;5050833;28;20446;-74
2021/12/09 14:25:28;;;;;;;10.10;5.43;;;5.90;97.30;;;;;;5050291;28;20477;-74
2021/12/09 14:27:55;;;;;;;8.82;5.07;;;5.90;97.40;;;;;;5052122;28;20029;-74